sensor_id;sensor_type;location;lat;lon;timestamp;pressure;altitude;pressure_sealevel;temperature;humidity
39301;BME280;25019;42.626;23.380;2023-07-31T00:00:49;94090.22;;;20.86;86.73
39301;BME280;25019;42.626;23.380;2023-07-31T00:03:14;94086.88;;;20.89;86.19
39301;BME280;25019;42.626;23.380;2023-07-31T00:05:40;94088.94;;;20.92;86.89
39301;BME280;25019;42.626;23.380;2023-07-31T00:08:06;94093.88;;;20.90;86.17
39301;BME280;25019;42.626;23.380;2023-07-31T00:10:31;94094.50;;;20.96;85.36
39301;BME280;25019;42.626;23.380;2023-07-31T00:12:57;94096.88;;;20.98;85.49
39301;BME280;25019;42.626;23.380;2023-07-31T00:15:22;94041.84;;;20.63;86.06
39301;BME280;25019;42.626;23.380;2023-07-31T00:17:48;94066.75;;;20.87;87.20
39301;BME280;25019;42.626;23.380;2023-07-31T00:20:14;94058.34;;;20.79;87.43
39301;BME280;25019;42.626;23.380;2023-07-31T00:22:40;94109.41;;;21.02;88.34
39301;BME280;25019;42.626;23.380;2023-07-31T00:25:05;94105.63;;;20.94;89.26
39301;BME280;25019;42.626;23.380;2023-07-31T00:27:32;94032.97;;;20.45;89.82
39301;BME280;25019;42.626;23.380;2023-07-31T00:29:58;94096.59;;;20.73;91.46
39301;BME280;25019;42.626;23.380;2023-07-31T00:32:25;94095.78;;;20.72;92.80
39301;BME280;25019;42.626;23.380;2023-07-31T00:34:50;94088.50;;;20.73;92.89
39301;BME280;25019;42.626;23.380;2023-07-31T00:37:16;94083.56;;;20.75;92.86
39301;BME280;25019;42.626;23.380;2023-07-31T00:39:42;94067.06;;;20.68;93.39
39301;BME280;25019;42.626;23.380;2023-07-31T00:42:07;94063.59;;;20.58;93.54
39301;BME280;25019;42.626;23.380;2023-07-31T00:44:33;94067.41;;;20.48;94.17
39301;BME280;25019;42.626;23.380;2023-07-31T00:46:59;94011.78;;;20.00;97.02
39301;BME280;25019;42.626;23.380;2023-07-31T00:49:26;94077.41;;;20.30;97.27
39301;BME280;25019;42.626;23.380;2023-07-31T00:51:52;94065.69;;;20.17;97.80
39301;BME280;25019;42.626;23.380;2023-07-31T00:54:19;94042.19;;;19.91;98.18
39301;BME280;25019;42.626;23.380;2023-07-31T00:56:45;94077.41;;;20.13;98.48
39301;BME280;25019;42.626;23.380;2023-07-31T00:59:11;94067.56;;;20.08;98.62
39301;BME280;25019;42.626;23.380;2023-07-31T01:01:37;94031.88;;;19.76;96.79
39301;BME280;25019;42.626;23.380;2023-07-31T01:04:04;94078.53;;;20.03;98.55
39301;BME280;25019;42.626;23.380;2023-07-31T01:09:40;94052.63;;;19.84;99.19
39301;BME280;25019;42.626;23.380;2023-07-31T01:12:09;94058.53;;;19.95;99.77
39301;BME280;25019;42.626;23.380;2023-07-31T01:14:38;94061.25;;;20.04;99.73
39301;BME280;25019;42.626;23.380;2023-07-31T01:17:04;94066.31;;;20.05;100.00
39301;BME280;25019;42.626;23.380;2023-07-31T01:19:30;94056.78;;;20.08;100.00
39301;BME280;25019;42.626;23.380;2023-07-31T01:25:09;94052.53;;;20.16;100.00
39301;BME280;25019;42.626;23.380;2023-07-31T01:27:40;94043.16;;;20.13;100.00
39301;BME280;25019;42.626;23.380;2023-07-31T01:30:11;94044.59;;;20.02;100.00
39301;BME280;25019;42.626;23.380;2023-07-31T01:32:43;94051.56;;;20.03;100.00
39301;BME280;25019;42.626;23.380;2023-07-31T01:35:11;93944.66;;;19.28;100.00
39301;BME280;25019;42.626;23.380;2023-07-31T01:37:36;94035.34;;;19.85;100.00
39301;BME280;25019;42.626;23.380;2023-07-31T01:40:03;94043.28;;;19.82;100.00
39301;BME280;25019;42.626;23.380;2023-07-31T01:42:30;94048.50;;;19.78;100.00
39301;BME280;25019;42.626;23.380;2023-07-31T01:44:55;93999.34;;;19.37;100.00
39301;BME280;25019;42.626;23.380;2023-07-31T01:47:21;93976.47;;;19.17;100.00
39301;BME280;25019;42.626;23.380;2023-07-31T01:49:46;94031.66;;;19.46;100.00
39301;BME280;25019;42.626;23.380;2023-07-31T01:52:12;93972.94;;;18.99;100.00
39301;BME280;25019;42.626;23.380;2023-07-31T01:54:37;93936.88;;;18.68;100.00
39301;BME280;25019;42.626;23.380;2023-07-31T01:57:03;93991.94;;;19.02;100.00
39301;BME280;25019;42.626;23.380;2023-07-31T01:59:29;94040.97;;;19.31;100.00
39301;BME280;25019;42.626;23.380;2023-07-31T02:01:55;94008.75;;;19.08;100.00
39301;BME280;25019;42.626;23.380;2023-07-31T02:04:20;94047.31;;;19.35;100.00
39301;BME280;25019;42.626;23.380;2023-07-31T02:06:46;94049.94;;;19.26;100.00
39301;BME280;25019;42.626;23.380;2023-07-31T02:09:11;94039.19;;;19.26;100.00
39301;BME280;25019;42.626;23.380;2023-07-31T02:11:37;93985.53;;;18.90;100.00
39301;BME280;25019;42.626;23.380;2023-07-31T02:14:03;94009.38;;;19.05;100.00
39301;BME280;25019;42.626;23.380;2023-07-31T02:16:28;94051.25;;;19.29;100.00
39301;BME280;25019;42.626;23.380;2023-07-31T02:18:54;94059.34;;;19.38;100.00
39301;BME280;25019;42.626;23.380;2023-07-31T02:21:19;94064.41;;;19.39;100.00
39301;BME280;25019;42.626;23.380;2023-07-31T02:23:45;94062.53;;;19.40;100.00
39301;BME280;25019;42.626;23.380;2023-07-31T02:26:11;94049.66;;;19.28;100.00
39301;BME280;25019;42.626;23.380;2023-07-31T02:28:36;94072.06;;;19.46;100.00
39301;BME280;25019;42.626;23.380;2023-07-31T02:31:03;94053.47;;;19.36;100.00
39301;BME280;25019;42.626;23.380;2023-07-31T02:33:28;94027.63;;;19.17;100.00
39301;BME280;25019;42.626;23.380;2023-07-31T02:35:54;94066.00;;;19.40;100.00
39301;BME280;25019;42.626;23.380;2023-07-31T02:38:21;94053.47;;;19.36;100.00
39301;BME280;25019;42.626;23.380;2023-07-31T02:40:47;94063.16;;;19.45;100.00
39301;BME280;25019;42.626;23.380;2023-07-31T02:43:13;94065.56;;;19.56;100.00
39301;BME280;25019;42.626;23.380;2023-07-31T02:45:39;94067.81;;;19.63;100.00
39301;BME280;25019;42.626;23.380;2023-07-31T02:48:05;93991.53;;;19.18;100.00
39301;BME280;25019;42.626;23.380;2023-07-31T02:50:30;94044.31;;;19.54;100.00
39301;BME280;25019;42.626;23.380;2023-07-31T02:52:57;94011.84;;;19.42;100.00
39301;BME280;25019;42.626;23.380;2023-07-31T02:55:23;94000.09;;;19.29;100.00
39301;BME280;25019;42.626;23.380;2023-07-31T02:57:48;94070.50;;;19.71;100.00
39301;BME280;25019;42.626;23.380;2023-07-31T03:00:14;94067.81;;;19.63;100.00
39301;BME280;25019;42.626;23.380;2023-07-31T03:02:40;94061.28;;;19.55;100.00
39301;BME280;25019;42.626;23.380;2023-07-31T03:05:05;94070.97;;;19.65;100.00
39301;BME280;25019;42.626;23.380;2023-07-31T03:07:31;94081.28;;;19.63;100.00
39301;BME280;25019;42.626;23.380;2023-07-31T03:09:57;94074.47;;;19.65;100.00
39301;BME280;25019;42.626;23.380;2023-07-31T03:12:23;94076.38;;;19.65;100.00
39301;BME280;25019;42.626;23.380;2023-07-31T03:14:48;94005.63;;;19.24;100.00
39301;BME280;25019;42.626;23.380;2023-07-31T03:17:15;94013.22;;;19.22;100.00
39301;BME280;25019;42.626;23.380;2023-07-31T03:19:40;94077.19;;;19.65;100.00
39301;BME280;25019;42.626;23.380;2023-07-31T03:22:06;94006.72;;;19.23;100.00
39301;BME280;25019;42.626;23.380;2023-07-31T03:24:31;94079.88;;;19.74;100.00
39301;BME280;25019;42.626;23.380;2023-07-31T03:26:57;94086.66;;;19.71;100.00
39301;BME280;25019;42.626;23.380;2023-07-31T03:29:23;94057.63;;;19.51;100.00
39301;BME280;25019;42.626;23.380;2023-07-31T03:31:48;94077.47;;;19.64;100.00
39301;BME280;25019;42.626;23.380;2023-07-31T03:34:14;94067.94;;;19.57;100.00
39301;BME280;25019;42.626;23.380;2023-07-31T03:36:40;94034.63;;;19.36;100.00
39301;BME280;25019;42.626;23.380;2023-07-31T03:39:06;94040.97;;;19.40;100.00
39301;BME280;25019;42.626;23.380;2023-07-31T03:41:32;94105.38;;;19.76;100.00
39301;BME280;25019;42.626;23.380;2023-07-31T03:43:58;94002.56;;;19.08;100.00
39301;BME280;25019;42.626;23.380;2023-07-31T03:46:26;94108.41;;;19.75;100.00
39301;BME280;25019;42.626;23.380;2023-07-31T03:48:53;94102.22;;;19.74;100.00
39301;BME280;25019;42.626;23.380;2023-07-31T03:51:18;94084.94;;;19.75;100.00
39301;BME280;25019;42.626;23.380;2023-07-31T03:53:44;94094.63;;;19.85;100.00
39301;BME280;25019;42.626;23.380;2023-07-31T03:56:10;94084.94;;;19.84;100.00
39301;BME280;25019;42.626;23.380;2023-07-31T03:58:36;94107.84;;;19.96;100.00
39301;BME280;25019;42.626;23.380;2023-07-31T04:01:02;94114.19;;;20.00;100.00
39301;BME280;25019;42.626;23.380;2023-07-31T04:03:28;94115.44;;;20.02;100.00
39301;BME280;25019;42.626;23.380;2023-07-31T04:05:55;94119.25;;;20.01;100.00
39301;BME280;25019;42.626;23.380;2023-07-31T04:08:22;94059.25;;;19.60;100.00
39301;BME280;25019;42.626;23.380;2023-07-31T04:10:48;94051.47;;;19.50;100.00
39301;BME280;25019;42.626;23.380;2023-07-31T04:13:14;94125.75;;;19.91;100.00
39301;BME280;25019;42.626;23.380;2023-07-31T04:15:40;94115.78;;;19.92;100.00
39301;BME280;25019;42.626;23.380;2023-07-31T04:18:09;94118.47;;;20.01;100.00
39301;BME280;25019;42.626;23.380;2023-07-31T04:20:34;94125.47;;;20.11;100.00
39301;BME280;25019;42.626;23.380;2023-07-31T04:23:00;94063.25;;;19.81;100.00
39301;BME280;25019;42.626;23.380;2023-07-31T04:25:26;94127.53;;;20.31;100.00
39301;BME280;25019;42.626;23.380;2023-07-31T04:27:51;94121.50;;;20.34;100.00
39301;BME280;25019;42.626;23.380;2023-07-31T04:30:17;94075.84;;;20.03;100.00
39301;BME280;25019;42.626;23.380;2023-07-31T04:32:43;94115.63;;;20.41;100.00
39301;BME280;25019;42.626;23.380;2023-07-31T04:35:10;94115.00;;;20.35;100.00
39301;BME280;25019;42.626;23.380;2023-07-31T04:37:35;94133.41;;;20.51;100.00
39301;BME280;25019;42.626;23.380;2023-07-31T04:40:01;94056.97;;;20.12;100.00
39301;BME280;25019;42.626;23.380;2023-07-31T04:42:27;94122.94;;;20.58;100.00
39301;BME280;25019;42.626;23.380;2023-07-31T04:44:52;94126.09;;;20.69;99.35
39301;BME280;25019;42.626;23.380;2023-07-31T04:47:19;94071.72;;;20.41;98.81
39301;BME280;25019;42.626;23.380;2023-07-31T04:49:44;94115.00;;;20.71;97.60
39301;BME280;25019;42.626;23.380;2023-07-31T04:52:10;94125.47;;;20.72;97.12
39301;BME280;25019;42.626;23.380;2023-07-31T04:54:35;94066.97;;;20.29;96.55
39301;BME280;25019;42.626;23.380;2023-07-31T04:57:01;94117.22;;;20.69;96.34
39301;BME280;25019;42.626;23.380;2023-07-31T04:59:27;94062.81;;;20.31;96.62
39301;BME280;25019;42.626;23.380;2023-07-31T05:01:52;94117.69;;;20.71;96.17
39301;BME280;25019;42.626;23.380;2023-07-31T05:04:18;94011.47;;;20.19;94.67
39301;BME280;25019;42.626;23.380;2023-07-31T05:06:44;94119.47;;;21.40;92.11
39301;BME280;25019;42.626;23.380;2023-07-31T05:09:09;94107.84;;;21.79;87.91
39301;BME280;25019;42.626;23.380;2023-07-31T05:11:35;94115.19;;;22.29;86.00
39301;BME280;25019;42.626;23.380;2023-07-31T05:14:01;94101.44;;;22.35;84.46
39301;BME280;25019;42.626;23.380;2023-07-31T05:16:27;94097.56;;;22.66;82.33
39301;BME280;25019;42.626;23.380;2023-07-31T05:18:52;94115.00;;;22.89;80.84
39301;BME280;25019;42.626;23.380;2023-07-31T05:21:18;94089.47;;;23.12;80.54
39301;BME280;25019;42.626;23.380;2023-07-31T05:23:43;94113.69;;;23.42;78.56
39301;BME280;25019;42.626;23.380;2023-07-31T05:26:09;94102.75;;;23.63;77.05
39301;BME280;25019;42.626;23.380;2023-07-31T05:28:35;94110.06;;;23.87;75.76
39301;BME280;25019;42.626;23.380;2023-07-31T05:31:02;94103.28;;;23.93;75.43
39301;BME280;25019;42.626;23.380;2023-07-31T05:33:28;94118.66;;;24.27;73.98
39301;BME280;25019;42.626;23.380;2023-07-31T05:35:54;94102.44;;;24.43;72.53
39301;BME280;25019;42.626;23.380;2023-07-31T05:38:19;94104.72;;;24.28;72.05
39301;BME280;25019;42.626;23.380;2023-07-31T05:40:46;94063.56;;;23.98;73.03
39301;BME280;25019;42.626;23.380;2023-07-31T05:43:12;94108.28;;;24.04;72.62
39301;BME280;25019;42.626;23.380;2023-07-31T05:45:37;94112.91;;;24.57;71.60
39301;BME280;25019;42.626;23.380;2023-07-31T05:48:03;94111.19;;;24.77;69.13
39301;BME280;25019;42.626;23.380;2023-07-31T05:50:30;94109.88;;;24.87;69.13
39301;BME280;25019;42.626;23.380;2023-07-31T05:52:55;94071.31;;;24.52;68.86
39301;BME280;25019;42.626;23.380;2023-07-31T05:55:21;94097.72;;;24.96;68.34
39301;BME280;25019;42.626;23.380;2023-07-31T05:57:46;94093.06;;;24.81;67.50
39301;BME280;25019;42.626;23.380;2023-07-31T06:00:13;94100.66;;;24.75;66.39
39301;BME280;25019;42.626;23.380;2023-07-31T06:02:38;94107.38;;;24.94;65.12
39301;BME280;25019;42.626;23.380;2023-07-31T06:05:05;94081.78;;;24.38;65.38
39301;BME280;25019;42.626;23.380;2023-07-31T06:07:34;94045.47;;;24.43;66.00
39301;BME280;25019;42.626;23.380;2023-07-31T06:09:59;94083.00;;;24.41;64.71
39301;BME280;25019;42.626;23.380;2023-07-31T06:12:32;94122.31;;;23.81;67.35
39301;BME280;25019;42.626;23.380;2023-07-31T06:14:57;94121.25;;;23.36;68.87
39301;BME280;25019;42.626;23.380;2023-07-31T06:17:23;94114.72;;;23.37;69.02
39301;BME280;25019;42.626;23.380;2023-07-31T06:19:50;94075.75;;;23.42;67.27
39301;BME280;25019;42.626;23.380;2023-07-31T06:22:16;94121.72;;;24.00;66.36
39301;BME280;25019;42.626;23.380;2023-07-31T06:24:41;94105.94;;;24.43;64.86
39301;BME280;25019;42.626;23.380;2023-07-31T06:27:07;94100.78;;;24.79;63.65
39301;BME280;25019;42.626;23.380;2023-07-31T06:29:33;94118.78;;;25.00;63.56
39301;BME280;25019;42.626;23.380;2023-07-31T06:31:59;94049.63;;;24.40;63.46
39301;BME280;25019;42.626;23.380;2023-07-31T06:34:25;94118.72;;;24.43;62.88
39301;BME280;25019;42.626;23.380;2023-07-31T06:36:50;94012.50;;;23.75;61.31
39301;BME280;25019;42.626;23.380;2023-07-31T06:39:16;94110.78;;;24.09;61.79
39301;BME280;25019;42.626;23.380;2023-07-31T06:41:42;94075.41;;;23.56;63.17
39301;BME280;25019;42.626;23.380;2023-07-31T06:44:10;94113.47;;;23.59;64.59
39301;BME280;25019;42.626;23.380;2023-07-31T06:46:35;94027.16;;;22.53;65.81
39301;BME280;25019;42.626;23.380;2023-07-31T06:49:01;94114.41;;;22.84;66.94
39301;BME280;25019;42.626;23.380;2023-07-31T06:51:27;94097.94;;;22.77;67.14
39301;BME280;25019;42.626;23.380;2023-07-31T06:53:52;94094.28;;;22.60;67.46
39301;BME280;25019;42.626;23.380;2023-07-31T06:56:18;94120.56;;;22.93;69.00
39301;BME280;25019;42.626;23.380;2023-07-31T06:58:43;94097.44;;;22.96;68.32
39301;BME280;25019;42.626;23.380;2023-07-31T07:01:09;94073.84;;;22.63;68.39
39301;BME280;25019;42.626;23.380;2023-07-31T07:03:35;94120.09;;;22.57;68.69
39301;BME280;25019;42.626;23.380;2023-07-31T07:06:00;94113.09;;;22.56;69.82
39301;BME280;25019;42.626;23.380;2023-07-31T07:08:26;94109.94;;;22.54;70.68
39301;BME280;25019;42.626;23.380;2023-07-31T07:10:52;94120.00;;;22.66;70.61
39301;BME280;25019;42.626;23.380;2023-07-31T07:13:17;94006.47;;;21.94;71.17
39301;BME280;25019;42.626;23.380;2023-07-31T07:15:48;94067.56;;;22.71;70.71
39301;BME280;25019;42.626;23.380;2023-07-31T07:18:14;94050.31;;;22.42;68.99
39301;BME280;25019;42.626;23.380;2023-07-31T07:20:39;94055.69;;;22.29;70.09
39301;BME280;25019;42.626;23.380;2023-07-31T07:23:05;94106.75;;;22.52;70.14
39301;BME280;25019;42.626;23.380;2023-07-31T07:25:31;94101.84;;;22.24;69.88
39301;BME280;25019;42.626;23.380;2023-07-31T07:27:57;94118.28;;;22.19;70.09
39301;BME280;25019;42.626;23.380;2023-07-31T07:30:22;94116.41;;;22.11;71.21
39301;BME280;25019;42.626;23.380;2023-07-31T07:32:50;94128.50;;;22.13;70.73
39301;BME280;25019;42.626;23.380;2023-07-31T07:35:16;94135.56;;;21.97;71.71
39301;BME280;25019;42.626;23.380;2023-07-31T07:37:41;94122.69;;;22.24;70.15
39301;BME280;25019;42.626;23.380;2023-07-31T07:40:08;94112.25;;;22.35;68.54
39301;BME280;25019;42.626;23.380;2023-07-31T07:42:33;94138.41;;;22.73;67.48
39301;BME280;25019;42.626;23.380;2023-07-31T07:44:59;94128.41;;;22.86;66.53
39301;BME280;25019;42.626;23.380;2023-07-31T07:47:24;94137.53;;;23.15;66.26
39301;BME280;25019;42.626;23.380;2023-07-31T07:49:50;94155.56;;;23.32;65.60
39301;BME280;25019;42.626;23.380;2023-07-31T07:52:16;94134.34;;;23.46;64.43
39301;BME280;25019;42.626;23.380;2023-07-31T07:54:41;94127.94;;;23.63;64.13
39301;BME280;25019;42.626;23.380;2023-07-31T07:57:07;94085.91;;;23.45;63.21
39301;BME280;25019;42.626;23.380;2023-07-31T07:59:33;94065.25;;;23.40;63.13
39301;BME280;25019;42.626;23.380;2023-07-31T08:01:58;94143.09;;;23.77;63.00
39301;BME280;25019;42.626;23.380;2023-07-31T08:04:24;94145.78;;;23.52;63.19
39301;BME280;25019;42.626;23.380;2023-07-31T08:06:49;94086.47;;;22.92;64.43
39301;BME280;25019;42.626;23.380;2023-07-31T08:09:15;94150.38;;;23.39;64.13
39301;BME280;25019;42.626;23.380;2023-07-31T08:11:41;94035.44;;;22.69;64.60
39301;BME280;25019;42.626;23.380;2023-07-31T08:14:06;94108.59;;;23.28;63.97
39301;BME280;25019;42.626;23.380;2023-07-31T08:16:32;94137.19;;;23.50;63.93
39301;BME280;25019;42.626;23.380;2023-07-31T08:18:58;94104.22;;;23.14;63.61
39301;BME280;25019;42.626;23.380;2023-07-31T08:21:23;94136.69;;;23.36;63.99
39301;BME280;25019;42.626;23.380;2023-07-31T08:23:49;94100.63;;;23.10;64.59
39301;BME280;25019;42.626;23.380;2023-07-31T08:26:18;94140.53;;;23.34;63.51
39301;BME280;25019;42.626;23.380;2023-07-31T08:28:44;94137.81;;;23.34;62.18
39301;BME280;25019;42.626;23.380;2023-07-31T08:31:10;94101.50;;;23.02;62.55
39301;BME280;25019;42.626;23.380;2023-07-31T08:33:37;94137.72;;;23.31;63.14
39301;BME280;25019;42.626;23.380;2023-07-31T08:36:03;94105.25;;;23.10;62.53
39301;BME280;25019;42.626;23.380;2023-07-31T08:38:29;94144.25;;;23.42;62.72
39301;BME280;25019;42.626;23.380;2023-07-31T08:40:57;94131.28;;;23.36;62.12
39301;BME280;25019;42.626;23.380;2023-07-31T08:43:25;94143.94;;;23.56;61.51
39301;BME280;25019;42.626;23.380;2023-07-31T08:45:51;94150.19;;;23.57;61.29
39301;BME280;25019;42.626;23.380;2023-07-31T08:48:17;94125.44;;;23.46;61.33
39301;BME280;25019;42.626;23.380;2023-07-31T08:50:43;94146.13;;;23.63;61.00
39301;BME280;25019;42.626;23.380;2023-07-31T08:53:09;94145.66;;;23.86;60.81
39301;BME280;25019;42.626;23.380;2023-07-31T08:55:35;94070.56;;;23.37;60.86
39301;BME280;25019;42.626;23.380;2023-07-31T08:58:03;94074.72;;;23.46;60.15
39301;BME280;25019;42.626;23.380;2023-07-31T09:00:31;94077.22;;;23.52;59.53
39301;BME280;25019;42.626;23.380;2023-07-31T09:03:03;94150.22;;;24.06;59.10
39301;BME280;25019;42.626;23.380;2023-07-31T09:05:35;94125.44;;;24.20;58.77
39301;BME280;25019;42.626;23.380;2023-07-31T09:08:03;94133.88;;;24.44;57.79
39301;BME280;25019;42.626;23.380;2023-07-31T09:10:29;94091.88;;;24.25;57.63
39301;BME280;25019;42.626;23.380;2023-07-31T09:12:55;94035.94;;;23.96;57.79
39301;BME280;25019;42.626;23.380;2023-07-31T09:15:21;94095.00;;;24.39;56.19
39301;BME280;25019;42.626;23.380;2023-07-31T09:17:59;94128.75;;;24.54;55.69
39301;BME280;25019;42.626;23.380;2023-07-31T09:20:25;94115.19;;;24.54;55.82
39301;BME280;25019;42.626;23.380;2023-07-31T09:22:51;94131.84;;;24.81;54.63
39301;BME280;25019;42.626;23.380;2023-07-31T09:27:50;94124.38;;;24.91;54.30
39301;BME280;25019;42.626;23.380;2023-07-31T09:30:20;94118.56;;;24.92;53.56
39301;BME280;25019;42.626;23.380;2023-07-31T09:32:47;94113.84;;;24.89;53.40
39301;BME280;25019;42.626;23.380;2023-07-31T09:35:42;94115.59;;;24.97;53.33
39301;BME280;25019;42.626;23.380;2023-07-31T09:38:10;94075.44;;;24.75;52.73
39301;BME280;25019;42.626;23.380;2023-07-31T09:40:38;94076.25;;;24.91;53.00
39301;BME280;25019;42.626;23.380;2023-07-31T09:43:09;94108.91;;;25.23;53.50
39301;BME280;25019;42.626;23.380;2023-07-31T09:45:40;94109.91;;;25.47;52.96
39301;BME280;25019;42.626;23.380;2023-07-31T09:48:08;94054.91;;;25.38;52.31
39301;BME280;25019;42.626;23.380;2023-07-31T09:50:39;94111.25;;;26.05;52.10
39301;BME280;25019;42.626;23.380;2023-07-31T09:53:06;94112.53;;;25.92;51.98
39301;BME280;25019;42.626;23.380;2023-07-31T09:55:32;94084.50;;;26.07;51.42
39301;BME280;25019;42.626;23.380;2023-07-31T09:57:58;94056.41;;;26.03;50.47
39301;BME280;25019;42.626;23.380;2023-07-31T10:00:24;94107.22;;;25.99;52.15
39301;BME280;25019;42.626;23.380;2023-07-31T10:02:52;94095.06;;;25.93;51.20
39301;BME280;25019;42.626;23.380;2023-07-31T10:05:19;94106.78;;;26.13;50.63
39301;BME280;25019;42.626;23.380;2023-07-31T10:07:54;94067.13;;;25.96;50.07
39301;BME280;25019;42.626;23.380;2023-07-31T10:10:21;94099.22;;;26.22;50.13
39301;BME280;25019;42.626;23.380;2023-07-31T10:12:52;94098.03;;;26.59;49.96
39301;BME280;25019;42.626;23.380;2023-07-31T10:15:18;94082.19;;;26.65;48.94
39301;BME280;25019;42.626;23.380;2023-07-31T10:17:46;94094.69;;;26.85;48.55
39301;BME280;25019;42.626;23.380;2023-07-31T10:20:12;94099.06;;;26.70;48.62
39301;BME280;25019;42.626;23.380;2023-07-31T10:22:39;94030.75;;;25.84;48.74
39301;BME280;25019;42.626;23.380;2023-07-31T10:25:07;94092.28;;;26.25;49.23
39301;BME280;25019;42.626;23.380;2023-07-31T10:27:35;94087.25;;;26.27;49.79
39301;BME280;25019;42.626;23.380;2023-07-31T10:30:04;94093.94;;;26.49;48.88
39301;BME280;25019;42.626;23.380;2023-07-31T10:32:31;94086.63;;;26.73;48.27
39301;BME280;25019;42.626;23.380;2023-07-31T10:34:57;94026.34;;;26.31;46.92
39301;BME280;25019;42.626;23.380;2023-07-31T10:37:29;94084.19;;;26.68;47.17
39301;BME280;25019;42.626;23.380;2023-07-31T10:42:47;94082.47;;;26.99;45.95
39301;BME280;25019;42.626;23.380;2023-07-31T10:45:13;94064.69;;;27.05;45.05
39301;BME280;25019;42.626;23.380;2023-07-31T10:47:45;94018.66;;;27.00;45.51
39301;BME280;25019;42.626;23.380;2023-07-31T10:50:20;94066.38;;;27.36;45.95
39301;BME280;25019;42.626;23.380;2023-07-31T10:52:51;94049.53;;;27.07;46.04
39301;BME280;25019;42.626;23.380;2023-07-31T10:57:53;94071.44;;;27.58;44.30
39301;BME280;25019;42.626;23.380;2023-07-31T11:00:27;94062.34;;;27.73;44.28
39301;BME280;25019;42.626;23.380;2023-07-31T11:03:04;94063.13;;;27.74;44.35
39301;BME280;25019;42.626;23.380;2023-07-31T11:05:50;94067.97;;;27.84;43.26
39301;BME280;25019;42.626;23.380;2023-07-31T11:10:43;94052.03;;;28.47;42.18
39301;BME280;25019;42.626;23.380;2023-07-31T11:13:09;94058.53;;;28.66;41.01
39301;BME280;25019;42.626;23.380;2023-07-31T11:15:35;94053.72;;;28.55;40.25
39301;BME280;25019;42.626;23.380;2023-07-31T11:18:02;94010.88;;;28.02;40.54
39301;BME280;25019;42.626;23.380;2023-07-31T11:20:37;94057.19;;;28.22;41.67
39301;BME280;25019;42.626;23.380;2023-07-31T11:23:06;94017.22;;;27.52;41.93
39301;BME280;25019;42.626;23.380;2023-07-31T11:25:34;94047.38;;;27.90;41.89
39301;BME280;25019;42.626;23.380;2023-07-31T11:28:07;93955.94;;;27.46;41.41
39301;BME280;25019;42.626;23.380;2023-07-31T11:30:34;94054.66;;;28.09;41.58
39301;BME280;25019;42.626;23.380;2023-07-31T11:33:02;94040.97;;;27.79;41.34
39301;BME280;25019;42.626;23.380;2023-07-31T11:35:32;94047.84;;;27.96;42.11
39301;BME280;25019;42.626;23.380;2023-07-31T11:37:59;93982.41;;;27.69;40.17
39301;BME280;25019;42.626;23.380;2023-07-31T11:40:25;93988.00;;;27.80;40.16
39301;BME280;25019;42.626;23.380;2023-07-31T11:42:58;94043.72;;;28.09;40.29
39301;BME280;25019;42.626;23.380;2023-07-31T11:45:27;94009.97;;;27.64;39.96
39301;BME280;25019;42.626;23.380;2023-07-31T11:47:56;94004.09;;;27.62;40.30
39301;BME280;25019;42.626;23.380;2023-07-31T11:50:23;94035.56;;;27.83;41.00
39301;BME280;25019;42.626;23.380;2023-07-31T11:52:55;94036.94;;;27.96;40.80
39301;BME280;25019;42.626;23.380;2023-07-31T11:55:21;94011.44;;;27.58;40.93
39301;BME280;25019;42.626;23.380;2023-07-31T11:57:48;94038.56;;;27.74;41.80
39301;BME280;25019;42.626;23.380;2023-07-31T12:00:14;94042.16;;;27.55;42.56
39301;BME280;25019;42.626;23.380;2023-07-31T12:02:41;93990.59;;;26.76;43.74
39301;BME280;25019;42.626;23.380;2023-07-31T12:05:14;94021.72;;;26.75;44.25
39301;BME280;25019;42.626;23.380;2023-07-31T12:07:47;94022.72;;;26.86;43.48
39301;BME280;25019;42.626;23.380;2023-07-31T12:10:31;94032.47;;;26.68;43.28
39301;BME280;25019;42.626;23.380;2023-07-31T12:13:04;94025.31;;;26.59;43.83
39301;BME280;25019;42.626;23.380;2023-07-31T12:15:41;94035.75;;;26.77;43.60
39301;BME280;25019;42.626;23.380;2023-07-31T12:18:12;94007.22;;;26.71;42.63
39301;BME280;25019;42.626;23.380;2023-07-31T12:20:43;93999.03;;;26.90;42.53
39301;BME280;25019;42.626;23.380;2023-07-31T12:23:14;93979.72;;;27.22;42.69
39301;BME280;25019;42.626;23.380;2023-07-31T12:25:39;94015.06;;;27.65;41.49
39301;BME280;25019;42.626;23.380;2023-07-31T12:28:05;94008.59;;;27.77;41.29
39301;BME280;25019;42.626;23.380;2023-07-31T12:30:34;94001.78;;;27.91;41.27
39301;BME280;25019;42.626;23.380;2023-07-31T12:35:41;94010.75;;;27.91;41.63
39301;BME280;25019;42.626;23.380;2023-07-31T12:38:07;94014.22;;;27.88;41.50
39301;BME280;25019;42.626;23.380;2023-07-31T12:40:32;94008.41;;;28.20;41.66
39301;BME280;25019;42.626;23.380;2023-07-31T12:43:01;94014.69;;;28.55;41.87
39301;BME280;25019;42.626;23.380;2023-07-31T12:45:28;93952.84;;;28.05;41.30
39301;BME280;25019;42.626;23.380;2023-07-31T12:47:53;93987.00;;;28.22;41.83
39301;BME280;25019;42.626;23.380;2023-07-31T12:50:19;93999.81;;;28.18;41.37
39301;BME280;25019;42.626;23.380;2023-07-31T12:52:45;94015.13;;;27.96;41.67
39301;BME280;25019;42.626;23.380;2023-07-31T12:55:10;93996.13;;;27.76;41.74
39301;BME280;25019;42.626;23.380;2023-07-31T12:57:36;93998.03;;;27.72;41.31
39301;BME280;25019;42.626;23.380;2023-07-31T13:00:03;93997.13;;;27.64;41.67
39301;BME280;25019;42.626;23.380;2023-07-31T13:02:29;93910.72;;;27.18;41.14
39301;BME280;25019;42.626;23.380;2023-07-31T13:04:54;93991.44;;;28.04;40.72